Wildersville, Tennessee
Current Conditions -  °F | °C
As of 12:15 PM on Thursday 29 Jan 2015 (Local Time) from KPVE Reporting Station
Broken Clouds Broken Clouds  
Wind Chill: 64°   Ceiling: 4200
Heat Index: 64°   Visibility: 10mi
Dew Point: 43°   Wind: 15mph
Humidity: 45%   Direction: 250°WSW
Pressure: 30.04"   Gusts: NA
Location:  35.78°N, 88.36°W
Report Text: KPVE 291815Z AUTO 25013KT 10SM BKN042 18/06 A3004 RMK
Loading
Personal Weather Stations






























Interactive Weather Map New forecast layout! Learn more

10-Day Weather Forecast

Advertisements
Track Severe Weather on mobile